< < Back
Terminal Aerodrome Forecast


Current Version              Previous Versions:   1  2  3  4  5  6  7  8  9  

Terminal Aerodrome Forecast

461
FTUS42 KFFC 311700
TAFFTY
TAF
KFTY 311729Z 3118/0118 22005KT P6SM SCT035 BKN050
     FM010100 00000KT P6SM FEW050 SCT250
     FM011400 25005KT P6SM SCT050 SCT250=



Latest METAR

428
SAUS70 KWBC 011100 RRJ
MTRFTY
METAR KFTY 011053Z 00000KT 10SM CLR 22/21 A3012 RMK AO2 SLP190 T02170206
$


USA.gov is the U.S. government's official web portal to all federal, state and local government web resources and services.